sensor_id;sensor_type;location;lat;lon;timestamp;P1;durP1;ratioP1;P2;durP2;ratioP2
80315;SDS011;71201;47.064;15.448;2024-03-22T00:00:40;2.83;;;1.20;;
80315;SDS011;71201;47.064;15.448;2024-03-22T00:03:05;3.38;;;1.10;;
80315;SDS011;71201;47.064;15.448;2024-03-22T00:05:31;2.00;;;1.13;;
80315;SDS011;71201;47.064;15.448;2024-03-22T00:07:56;2.93;;;1.33;;
80315;SDS011;71201;47.064;15.448;2024-03-22T00:10:21;2.10;;;1.13;;
80315;SDS011;71201;47.064;15.448;2024-03-22T00:12:47;2.83;;;0.90;;
80315;SDS011;71201;47.064;15.448;2024-03-22T00:15:13;2.20;;;1.00;;
80315;SDS011;71201;47.064;15.448;2024-03-22T00:17:39;3.60;;;1.23;;
80315;SDS011;71201;47.064;15.448;2024-03-22T00:20:04;2.57;;;1.10;;
80315;SDS011;71201;47.064;15.448;2024-03-22T00:22:29;1.80;;;1.10;;
80315;SDS011;71201;47.064;15.448;2024-03-22T00:24:55;2.92;;;1.35;;
80315;SDS011;71201;47.064;15.448;2024-03-22T00:27:20;2.13;;;1.05;;
80315;SDS011;71201;47.064;15.448;2024-03-22T00:29:46;3.43;;;1.37;;
80315;SDS011;71201;47.064;15.448;2024-03-22T00:32:11;2.60;;;0.93;;
80315;SDS011;71201;47.064;15.448;2024-03-22T00:34:36;2.30;;;1.10;;
80315;SDS011;71201;47.064;15.448;2024-03-22T00:37:01;2.38;;;1.30;;
80315;SDS011;71201;47.064;15.448;2024-03-22T00:39:27;3.67;;;1.30;;
80315;SDS011;71201;47.064;15.448;2024-03-22T00:41:52;4.13;;;1.30;;
80315;SDS011;71201;47.064;15.448;2024-03-22T00:44:17;3.07;;;1.27;;
80315;SDS011;71201;47.064;15.448;2024-03-22T00:46:42;2.97;;;1.20;;
80315;SDS011;71201;47.064;15.448;2024-03-22T00:49:08;2.20;;;0.90;;
80315;SDS011;71201;47.064;15.448;2024-03-22T00:51:33;3.63;;;1.10;;
80315;SDS011;71201;47.064;15.448;2024-03-22T00:53:58;3.40;;;1.20;;
80315;SDS011;71201;47.064;15.448;2024-03-22T00:56:24;4.32;;;1.33;;
80315;SDS011;71201;47.064;15.448;2024-03-22T00:58:49;5.07;;;1.40;;
80315;SDS011;71201;47.064;15.448;2024-03-22T01:01:14;2.90;;;1.47;;
80315;SDS011;71201;47.064;15.448;2024-03-22T01:03:39;3.03;;;1.43;;
80315;SDS011;71201;47.064;15.448;2024-03-22T01:06:05;4.13;;;1.40;;
80315;SDS011;71201;47.064;15.448;2024-03-22T01:08:30;3.20;;;1.38;;
80315;SDS011;71201;47.064;15.448;2024-03-22T01:10:55;2.63;;;1.30;;
80315;SDS011;71201;47.064;15.448;2024-03-22T01:13:21;2.55;;;1.42;;
80315;SDS011;71201;47.064;15.448;2024-03-22T01:15:46;3.00;;;1.60;;
80315;SDS011;71201;47.064;15.448;2024-03-22T01:18:12;3.65;;;1.58;;
80315;SDS011;71201;47.064;15.448;2024-03-22T01:20:38;3.22;;;1.45;;
80315;SDS011;71201;47.064;15.448;2024-03-22T01:23:03;2.42;;;1.20;;
80315;SDS011;71201;47.064;15.448;2024-03-22T01:25:29;3.70;;;1.50;;
80315;SDS011;71201;47.064;15.448;2024-03-22T01:27:55;2.85;;;1.58;;
80315;SDS011;71201;47.064;15.448;2024-03-22T01:30:20;2.60;;;1.48;;
80315;SDS011;71201;47.064;15.448;2024-03-22T01:32:45;3.30;;;1.60;;
80315;SDS011;71201;47.064;15.448;2024-03-22T01:35:11;2.97;;;1.23;;
80315;SDS011;71201;47.064;15.448;2024-03-22T01:37:36;3.10;;;1.70;;
80315;SDS011;71201;47.064;15.448;2024-03-22T01:40:02;3.60;;;1.30;;
80315;SDS011;71201;47.064;15.448;2024-03-22T01:42:27;2.72;;;1.70;;
80315;SDS011;71201;47.064;15.448;2024-03-22T01:44:53;3.03;;;1.40;;
80315;SDS011;71201;47.064;15.448;2024-03-22T01:47:18;2.55;;;1.50;;
80315;SDS011;71201;47.064;15.448;2024-03-22T01:49:43;4.67;;;1.60;;
80315;SDS011;71201;47.064;15.448;2024-03-22T01:52:09;4.00;;;1.58;;
80315;SDS011;71201;47.064;15.448;2024-03-22T01:54:34;3.30;;;1.48;;
80315;SDS011;71201;47.064;15.448;2024-03-22T01:56:59;3.63;;;1.73;;
80315;SDS011;71201;47.064;15.448;2024-03-22T02:24:59;4.88;;;1.88;;
80315;SDS011;71201;47.064;15.448;2024-03-22T02:39:37;4.60;;;1.65;;
80315;SDS011;71201;47.064;15.448;2024-03-22T02:56:12;2.53;;;1.30;;
80315;SDS011;71201;47.064;15.448;2024-03-22T03:06:03;3.20;;;1.20;;
80315;SDS011;71201;47.064;15.448;2024-03-22T03:25:04;6.15;;;1.30;;
80315;SDS011;71201;47.064;15.448;2024-03-22T03:32:24;3.72;;;1.17;;
80315;SDS011;71201;47.064;15.448;2024-03-22T03:47:06;2.47;;;1.15;;
80315;SDS011;71201;47.064;15.448;2024-03-22T03:54:07;2.45;;;1.27;;
80315;SDS011;71201;47.064;15.448;2024-03-22T04:14:04;3.42;;;1.17;;
80315;SDS011;71201;47.064;15.448;2024-03-22T04:35:44;3.60;;;1.30;;
80315;SDS011;71201;47.064;15.448;2024-03-22T04:45:28;3.00;;;1.30;;
80315;SDS011;71201;47.064;15.448;2024-03-22T05:07:36;2.78;;;1.52;;
80315;SDS011;71201;47.064;15.448;2024-03-22T05:22:11;4.35;;;1.70;;
80315;SDS011;71201;47.064;15.448;2024-03-22T05:37:04;4.75;;;2.00;;
80315;SDS011;71201;47.064;15.448;2024-03-22T05:49:47;5.75;;;2.25;;
80315;SDS011;71201;47.064;15.448;2024-03-22T05:59:21;3.63;;;1.80;;
80315;SDS011;71201;47.064;15.448;2024-03-22T06:09:23;4.97;;;2.10;;
80315;SDS011;71201;47.064;15.448;2024-03-22T06:23:47;5.03;;;2.05;;
80315;SDS011;71201;47.064;15.448;2024-03-22T06:31:34;4.35;;;1.77;;
80315;SDS011;71201;47.064;15.448;2024-03-22T06:50:33;5.80;;;2.53;;
80315;SDS011;71201;47.064;15.448;2024-03-22T07:00:18;4.30;;;2.50;;
80315;SDS011;71201;47.064;15.448;2024-03-22T07:19:00;4.45;;;2.65;;
80315;SDS011;71201;47.064;15.448;2024-03-22T07:31:25;3.60;;;2.30;;
80315;SDS011;71201;47.064;15.448;2024-03-22T07:36:15;3.97;;;2.63;;
80315;SDS011;71201;47.064;15.448;2024-03-22T07:42:49;5.43;;;2.28;;
80315;SDS011;71201;47.064;15.448;2024-03-22T07:57:29;5.82;;;2.72;;
80315;SDS011;71201;47.064;15.448;2024-03-22T08:11:46;4.45;;;2.78;;
80315;SDS011;71201;47.064;15.448;2024-03-22T08:16:29;5.93;;;2.20;;
80315;SDS011;71201;47.064;15.448;2024-03-22T08:19:01;6.50;;;2.60;;
80315;SDS011;71201;47.064;15.448;2024-03-22T08:23:45;3.78;;;2.10;;
80315;SDS011;71201;47.064;15.448;2024-03-22T08:34:03;4.53;;;2.95;;
80315;SDS011;71201;47.064;15.448;2024-03-22T08:41:16;3.97;;;2.13;;
80315;SDS011;71201;47.064;15.448;2024-03-22T09:02:57;5.47;;;2.08;;
80315;SDS011;71201;47.064;15.448;2024-03-22T09:10:16;5.55;;;2.60;;
80315;SDS011;71201;47.064;15.448;2024-03-22T09:22:26;4.35;;;2.40;;
80315;SDS011;71201;47.064;15.448;2024-03-22T10:00:59;4.30;;;2.10;;
80315;SDS011;71201;47.064;15.448;2024-03-22T10:05:36;3.88;;;1.70;;
80315;SDS011;71201;47.064;15.448;2024-03-22T10:12:48;4.25;;;1.80;;
80315;SDS011;71201;47.064;15.448;2024-03-22T10:20:22;3.95;;;1.55;;
80315;SDS011;71201;47.064;15.448;2024-03-22T10:35:22;3.92;;;2.88;;
80315;SDS011;71201;47.064;15.448;2024-03-22T10:42:36;5.18;;;1.27;;
80315;SDS011;71201;47.064;15.448;2024-03-22T11:17:18;2.90;;;1.20;;
80315;SDS011;71201;47.064;15.448;2024-03-22T11:29:16;2.72;;;1.20;;
80315;SDS011;71201;47.064;15.448;2024-03-22T11:34:12;2.58;;;1.10;;
80315;SDS011;71201;47.064;15.448;2024-03-22T11:43:55;2.70;;;1.25;;
80315;SDS011;71201;47.064;15.448;2024-03-22T11:48:26;2.95;;;1.13;;
80315;SDS011;71201;47.064;15.448;2024-03-22T11:50:51;2.90;;;1.05;;
80315;SDS011;71201;47.064;15.448;2024-03-22T11:53:17;3.35;;;1.60;;
80315;SDS011;71201;47.064;15.448;2024-03-22T11:55:42;3.17;;;0.93;;
80315;SDS011;71201;47.064;15.448;2024-03-22T11:58:09;1.70;;;1.00;;
80315;SDS011;71201;47.064;15.448;2024-03-22T12:00:34;2.85;;;0.93;;
80315;SDS011;71201;47.064;15.448;2024-03-22T12:02:59;3.08;;;1.30;;
80315;SDS011;71201;47.064;15.448;2024-03-22T12:05:24;2.10;;;1.05;;
80315;SDS011;71201;47.064;15.448;2024-03-22T12:07:51;3.25;;;0.85;;
80315;SDS011;71201;47.064;15.448;2024-03-22T12:10:16;3.00;;;0.90;;
80315;SDS011;71201;47.064;15.448;2024-03-22T12:12:41;2.17;;;0.90;;
80315;SDS011;71201;47.064;15.448;2024-03-22T12:15:07;3.17;;;1.07;;
80315;SDS011;71201;47.064;15.448;2024-03-22T12:17:32;2.03;;;1.10;;
80315;SDS011;71201;47.064;15.448;2024-03-22T12:19:59;4.40;;;1.60;;
80315;SDS011;71201;47.064;15.448;2024-03-22T12:22:24;4.03;;;1.00;;
80315;SDS011;71201;47.064;15.448;2024-03-22T12:24:50;3.70;;;0.93;;
80315;SDS011;71201;47.064;15.448;2024-03-22T12:27:16;2.30;;;1.30;;
80315;SDS011;71201;47.064;15.448;2024-03-22T12:29:41;2.95;;;1.10;;
80315;SDS011;71201;47.064;15.448;2024-03-22T12:32:06;3.00;;;1.27;;
80315;SDS011;71201;47.064;15.448;2024-03-22T12:34:32;3.05;;;1.10;;
80315;SDS011;71201;47.064;15.448;2024-03-22T12:36:58;3.08;;;1.00;;
80315;SDS011;71201;47.064;15.448;2024-03-22T12:39:24;3.83;;;1.17;;
80315;SDS011;71201;47.064;15.448;2024-03-22T12:41:49;2.38;;;0.90;;
80315;SDS011;71201;47.064;15.448;2024-03-22T12:44:14;2.33;;;1.27;;
80315;SDS011;71201;47.064;15.448;2024-03-22T12:46:40;2.13;;;1.10;;
80315;SDS011;71201;47.064;15.448;2024-03-22T12:49:08;1.63;;;0.80;;
80315;SDS011;71201;47.064;15.448;2024-03-22T12:51:34;2.67;;;1.45;;
80315;SDS011;71201;47.064;15.448;2024-03-22T12:54:00;1.90;;;0.80;;
80315;SDS011;71201;47.064;15.448;2024-03-22T12:56:26;2.33;;;1.40;;
80315;SDS011;71201;47.064;15.448;2024-03-22T12:58:51;2.90;;;1.10;;
80315;SDS011;71201;47.064;15.448;2024-03-22T13:01:16;2.83;;;1.40;;
80315;SDS011;71201;47.064;15.448;2024-03-22T13:03:41;2.85;;;1.02;;
80315;SDS011;71201;47.064;15.448;2024-03-22T13:06:07;4.60;;;1.73;;
80315;SDS011;71201;47.064;15.448;2024-03-22T13:08:32;3.13;;;0.90;;
80315;SDS011;71201;47.064;15.448;2024-03-22T13:10:57;3.03;;;1.00;;
80315;SDS011;71201;47.064;15.448;2024-03-22T13:13:23;2.78;;;1.08;;
80315;SDS011;71201;47.064;15.448;2024-03-22T13:15:48;2.63;;;1.20;;
80315;SDS011;71201;47.064;15.448;2024-03-22T13:18:14;5.00;;;1.52;;
80315;SDS011;71201;47.064;15.448;2024-03-22T13:20:41;3.00;;;1.08;;
80315;SDS011;71201;47.064;15.448;2024-03-22T13:23:06;3.50;;;1.38;;
80315;SDS011;71201;47.064;15.448;2024-03-22T13:25:34;4.07;;;1.30;;
80315;SDS011;71201;47.064;15.448;2024-03-22T13:27:59;7.32;;;1.10;;
80315;SDS011;71201;47.064;15.448;2024-03-22T13:30:25;3.30;;;1.03;;
80315;SDS011;71201;47.064;15.448;2024-03-22T13:32:50;2.15;;;1.02;;
80315;SDS011;71201;47.064;15.448;2024-03-22T13:35:16;2.05;;;1.30;;
80315;SDS011;71201;47.064;15.448;2024-03-22T13:37:41;2.35;;;1.00;;
80315;SDS011;71201;47.064;15.448;2024-03-22T13:40:07;1.92;;;0.95;;
80315;SDS011;71201;47.064;15.448;2024-03-22T13:42:32;2.33;;;0.90;;
80315;SDS011;71201;47.064;15.448;2024-03-22T13:44:57;2.67;;;0.82;;
80315;SDS011;71201;47.064;15.448;2024-03-22T13:47:23;2.83;;;0.90;;
80315;SDS011;71201;47.064;15.448;2024-03-22T13:49:48;2.20;;;0.90;;
80315;SDS011;71201;47.064;15.448;2024-03-22T13:52:13;2.70;;;1.20;;
80315;SDS011;71201;47.064;15.448;2024-03-22T13:54:39;4.00;;;1.00;;
80315;SDS011;71201;47.064;15.448;2024-03-22T13:57:05;3.20;;;0.70;;
80315;SDS011;71201;47.064;15.448;2024-03-22T13:59:30;3.88;;;1.27;;
80315;SDS011;71201;47.064;15.448;2024-03-22T14:01:56;1.90;;;0.93;;
80315;SDS011;71201;47.064;15.448;2024-03-22T14:04:21;2.45;;;1.00;;
80315;SDS011;71201;47.064;15.448;2024-03-22T14:06:47;2.83;;;1.02;;
80315;SDS011;71201;47.064;15.448;2024-03-22T14:09:12;2.17;;;1.13;;
80315;SDS011;71201;47.064;15.448;2024-03-22T14:11:38;1.92;;;0.75;;
80315;SDS011;71201;47.064;15.448;2024-03-22T14:14:03;1.50;;;0.80;;
80315;SDS011;71201;47.064;15.448;2024-03-22T14:16:29;2.63;;;1.02;;
80315;SDS011;71201;47.064;15.448;2024-03-22T14:18:55;1.88;;;0.90;;
80315;SDS011;71201;47.064;15.448;2024-03-22T14:21:20;5.72;;;1.20;;
80315;SDS011;71201;47.064;15.448;2024-03-22T14:23:46;5.70;;;1.10;;
80315;SDS011;71201;47.064;15.448;2024-03-22T14:26:11;1.67;;;0.80;;
80315;SDS011;71201;47.064;15.448;2024-03-22T14:28:36;3.75;;;1.30;;
80315;SDS011;71201;47.064;15.448;2024-03-22T14:31:04;3.78;;;1.30;;
80315;SDS011;71201;47.064;15.448;2024-03-22T14:33:30;2.40;;;1.10;;
80315;SDS011;71201;47.064;15.448;2024-03-22T14:35:55;2.33;;;0.90;;
80315;SDS011;71201;47.064;15.448;2024-03-22T14:38:21;3.35;;;1.10;;
80315;SDS011;71201;47.064;15.448;2024-03-22T14:40:46;1.90;;;0.98;;
80315;SDS011;71201;47.064;15.448;2024-03-22T14:43:13;2.53;;;1.33;;
80315;SDS011;71201;47.064;15.448;2024-03-22T14:45:39;3.42;;;1.20;;
80315;SDS011;71201;47.064;15.448;2024-03-22T14:48:04;1.67;;;1.10;;
80315;SDS011;71201;47.064;15.448;2024-03-22T14:50:34;2.60;;;0.60;;
80315;SDS011;71201;47.064;15.448;2024-03-22T14:53:00;4.03;;;1.00;;
80315;SDS011;71201;47.064;15.448;2024-03-22T14:55:25;4.47;;;1.30;;
80315;SDS011;71201;47.064;15.448;2024-03-22T14:57:50;4.80;;;1.10;;
80315;SDS011;71201;47.064;15.448;2024-03-22T15:00:16;2.53;;;0.70;;
80315;SDS011;71201;47.064;15.448;2024-03-22T15:02:41;3.88;;;1.33;;
80315;SDS011;71201;47.064;15.448;2024-03-22T15:05:06;2.90;;;1.00;;
80315;SDS011;71201;47.064;15.448;2024-03-22T15:07:32;3.10;;;0.90;;
80315;SDS011;71201;47.064;15.448;2024-03-22T15:09:57;3.38;;;0.80;;
80315;SDS011;71201;47.064;15.448;2024-03-22T15:12:22;2.40;;;0.80;;
80315;SDS011;71201;47.064;15.448;2024-03-22T15:14:51;2.35;;;1.00;;
80315;SDS011;71201;47.064;15.448;2024-03-22T15:17:18;3.88;;;1.25;;
80315;SDS011;71201;47.064;15.448;2024-03-22T15:22:12;3.85;;;1.08;;
80315;SDS011;71201;47.064;15.448;2024-03-22T15:24:39;2.35;;;1.17;;
80315;SDS011;71201;47.064;15.448;2024-03-22T15:27:05;2.13;;;1.10;;
80315;SDS011;71201;47.064;15.448;2024-03-22T15:29:31;6.00;;;1.05;;
80315;SDS011;71201;47.064;15.448;2024-03-22T15:31:56;3.08;;;1.20;;
80315;SDS011;71201;47.064;15.448;2024-03-22T15:34:22;3.28;;;1.20;;
80315;SDS011;71201;47.064;15.448;2024-03-22T15:36:47;2.38;;;1.05;;
80315;SDS011;71201;47.064;15.448;2024-03-22T15:39:13;3.17;;;1.00;;
80315;SDS011;71201;47.064;15.448;2024-03-22T15:41:38;4.47;;;1.00;;
80315;SDS011;71201;47.064;15.448;2024-03-22T15:44:03;2.63;;;1.20;;
80315;SDS011;71201;47.064;15.448;2024-03-22T15:46:29;1.80;;;0.80;;
80315;SDS011;71201;47.064;15.448;2024-03-22T15:48:54;2.78;;;1.17;;
80315;SDS011;71201;47.064;15.448;2024-03-22T15:51:19;3.97;;;0.80;;
80315;SDS011;71201;47.064;15.448;2024-03-22T15:53:44;1.57;;;1.03;;
80315;SDS011;71201;47.064;15.448;2024-03-22T15:56:10;1.83;;;1.02;;
80315;SDS011;71201;47.064;15.448;2024-03-22T15:58:35;4.20;;;1.20;;
80315;SDS011;71201;47.064;15.448;2024-03-22T16:01:00;1.97;;;0.90;;
80315;SDS011;71201;47.064;15.448;2024-03-22T16:03:26;1.95;;;1.10;;
80315;SDS011;71201;47.064;15.448;2024-03-22T16:05:52;4.63;;;1.60;;
80315;SDS011;71201;47.064;15.448;2024-03-22T16:08:18;7.47;;;1.63;;
80315;SDS011;71201;47.064;15.448;2024-03-22T16:10:44;3.97;;;1.60;;
80315;SDS011;71201;47.064;15.448;2024-03-22T16:13:10;2.17;;;1.13;;
80315;SDS011;71201;47.064;15.448;2024-03-22T16:15:35;1.83;;;1.08;;
80315;SDS011;71201;47.064;15.448;2024-03-22T16:18:01;3.77;;;1.17;;
80315;SDS011;71201;47.064;15.448;2024-03-22T16:20:26;2.55;;;1.00;;
80315;SDS011;71201;47.064;15.448;2024-03-22T16:22:51;4.18;;;1.23;;
80315;SDS011;71201;47.064;15.448;2024-03-22T16:25:16;2.33;;;1.20;;
80315;SDS011;71201;47.064;15.448;2024-03-22T16:27:42;4.60;;;1.07;;
80315;SDS011;71201;47.064;15.448;2024-03-22T16:30:07;4.13;;;1.40;;
80315;SDS011;71201;47.064;15.448;2024-03-22T16:32:32;2.78;;;1.38;;
80315;SDS011;71201;47.064;15.448;2024-03-22T16:34:58;2.07;;;1.00;;
80315;SDS011;71201;47.064;15.448;2024-03-22T16:37:23;3.73;;;1.20;;
80315;SDS011;71201;47.064;15.448;2024-03-22T16:39:48;2.47;;;1.10;;
80315;SDS011;71201;47.064;15.448;2024-03-22T16:42:13;2.50;;;1.20;;
80315;SDS011;71201;47.064;15.448;2024-03-22T16:44:39;2.33;;;1.23;;
80315;SDS011;71201;47.064;15.448;2024-03-22T16:47:04;5.47;;;1.33;;
80315;SDS011;71201;47.064;15.448;2024-03-22T16:49:32;2.53;;;1.25;;
80315;SDS011;71201;47.064;15.448;2024-03-22T16:51:57;4.82;;;1.20;;
80315;SDS011;71201;47.064;15.448;2024-03-22T16:54:22;3.05;;;1.17;;
80315;SDS011;71201;47.064;15.448;2024-03-22T16:56:48;3.22;;;1.27;;
80315;SDS011;71201;47.064;15.448;2024-03-22T16:59:14;3.67;;;1.65;;
80315;SDS011;71201;47.064;15.448;2024-03-22T17:01:41;3.72;;;1.30;;
80315;SDS011;71201;47.064;15.448;2024-03-22T17:04:06;5.17;;;1.37;;
80315;SDS011;71201;47.064;15.448;2024-03-22T17:06:31;4.07;;;1.30;;
80315;SDS011;71201;47.064;15.448;2024-03-22T17:08:57;2.33;;;1.17;;
80315;SDS011;71201;47.064;15.448;2024-03-22T17:11:22;3.47;;;1.30;;
80315;SDS011;71201;47.064;15.448;2024-03-22T17:13:47;5.65;;;1.42;;
80315;SDS011;71201;47.064;15.448;2024-03-22T17:16:13;4.20;;;1.40;;
80315;SDS011;71201;47.064;15.448;2024-03-22T17:18:38;3.73;;;1.83;;
80315;SDS011;71201;47.064;15.448;2024-03-22T17:21:03;3.35;;;1.73;;
80315;SDS011;71201;47.064;15.448;2024-03-22T17:23:28;3.28;;;1.40;;
80315;SDS011;71201;47.064;15.448;2024-03-22T17:25:57;3.13;;;1.38;;
80315;SDS011;71201;47.064;15.448;2024-03-22T17:28:23;3.08;;;1.60;;
80315;SDS011;71201;47.064;15.448;2024-03-22T17:30:48;3.40;;;2.20;;
80315;SDS011;71201;47.064;15.448;2024-03-22T17:33:13;3.37;;;1.57;;
80315;SDS011;71201;47.064;15.448;2024-03-22T17:35:39;2.63;;;1.50;;
80315;SDS011;71201;47.064;15.448;2024-03-22T17:38:04;3.90;;;2.17;;
80315;SDS011;71201;47.064;15.448;2024-03-22T17:40:34;5.95;;;1.60;;
80315;SDS011;71201;47.064;15.448;2024-03-22T17:42:59;4.65;;;1.48;;
80315;SDS011;71201;47.064;15.448;2024-03-22T17:45:25;5.23;;;1.50;;
80315;SDS011;71201;47.064;15.448;2024-03-22T17:47:50;2.70;;;1.67;;
80315;SDS011;71201;47.064;15.448;2024-03-22T17:50:15;5.33;;;1.90;;
80315;SDS011;71201;47.064;15.448;2024-03-22T17:52:40;3.42;;;2.13;;
80315;SDS011;71201;47.064;15.448;2024-03-22T17:55:06;10.32;;;2.00;;
80315;SDS011;71201;47.064;15.448;2024-03-22T17:57:31;4.07;;;1.60;;
80315;SDS011;71201;47.064;15.448;2024-03-22T17:59:57;4.82;;;1.92;;
80315;SDS011;71201;47.064;15.448;2024-03-22T18:02:22;3.75;;;2.20;;
80315;SDS011;71201;47.064;15.448;2024-03-22T18:04:48;10.40;;;4.70;;
80315;SDS011;71201;47.064;15.448;2024-03-22T18:07:13;7.05;;;2.45;;
80315;SDS011;71201;47.064;15.448;2024-03-22T18:09:38;4.30;;;2.50;;
80315;SDS011;71201;47.064;15.448;2024-03-22T18:12:04;6.15;;;2.70;;
80315;SDS011;71201;47.064;15.448;2024-03-22T18:14:29;5.60;;;2.45;;
80315;SDS011;71201;47.064;15.448;2024-03-22T18:16:55;5.50;;;2.13;;
80315;SDS011;71201;47.064;15.448;2024-03-22T18:19:20;4.97;;;2.23;;
80315;SDS011;71201;47.064;15.448;2024-03-22T18:21:45;5.30;;;2.00;;
80315;SDS011;71201;47.064;15.448;2024-03-22T18:24:11;6.63;;;2.53;;
80315;SDS011;71201;47.064;15.448;2024-03-22T18:26:37;5.43;;;2.67;;
80315;SDS011;71201;47.064;15.448;2024-03-22T18:29:02;6.20;;;2.90;;
80315;SDS011;71201;47.064;15.448;2024-03-22T18:31:30;6.82;;;3.10;;
80315;SDS011;71201;47.064;15.448;2024-03-22T18:33:56;7.25;;;3.28;;
80315;SDS011;71201;47.064;15.448;2024-03-22T18:36:21;5.85;;;3.15;;
80315;SDS011;71201;47.064;15.448;2024-03-22T18:38:46;5.17;;;2.97;;
80315;SDS011;71201;47.064;15.448;2024-03-22T18:41:12;4.78;;;2.58;;
80315;SDS011;71201;47.064;15.448;2024-03-22T18:43:37;6.20;;;3.33;;
80315;SDS011;71201;47.064;15.448;2024-03-22T18:46:03;7.53;;;3.10;;
80315;SDS011;71201;47.064;15.448;2024-03-22T18:48:29;7.15;;;2.80;;
80315;SDS011;71201;47.064;15.448;2024-03-22T18:50:54;8.98;;;3.45;;
80315;SDS011;71201;47.064;15.448;2024-03-22T18:53:19;7.97;;;3.20;;
80315;SDS011;71201;47.064;15.448;2024-03-22T18:55:44;5.27;;;2.90;;
80315;SDS011;71201;47.064;15.448;2024-03-22T18:58:10;5.65;;;2.97;;
80315;SDS011;71201;47.064;15.448;2024-03-22T19:00:35;7.60;;;2.97;;
80315;SDS011;71201;47.064;15.448;2024-03-22T19:03:01;7.80;;;3.85;;
80315;SDS011;71201;47.064;15.448;2024-03-22T19:05:26;8.55;;;3.30;;
80315;SDS011;71201;47.064;15.448;2024-03-22T19:07:51;10.07;;;3.87;;
80315;SDS011;71201;47.064;15.448;2024-03-22T19:10:16;5.47;;;3.03;;
80315;SDS011;71201;47.064;15.448;2024-03-22T19:12:42;8.18;;;3.10;;
80315;SDS011;71201;47.064;15.448;2024-03-22T19:15:07;7.50;;;3.50;;
80315;SDS011;71201;47.064;15.448;2024-03-22T19:17:32;6.07;;;2.95;;
80315;SDS011;71201;47.064;15.448;2024-03-22T19:19:58;5.70;;;3.37;;
80315;SDS011;71201;47.064;15.448;2024-03-22T19:22:23;8.68;;;3.67;;
80315;SDS011;71201;47.064;15.448;2024-03-22T19:24:48;6.57;;;3.33;;
80315;SDS011;71201;47.064;15.448;2024-03-22T19:27:13;7.80;;;3.40;;
80315;SDS011;71201;47.064;15.448;2024-03-22T19:29:39;6.87;;;3.70;;
80315;SDS011;71201;47.064;15.448;2024-03-22T19:32:06;7.75;;;3.90;;
80315;SDS011;71201;47.064;15.448;2024-03-22T19:34:32;10.55;;;3.65;;
80315;SDS011;71201;47.064;15.448;2024-03-22T19:36:57;7.47;;;3.22;;
80315;SDS011;71201;47.064;15.448;2024-03-22T19:39:22;9.18;;;3.67;;
80315;SDS011;71201;47.064;15.448;2024-03-22T19:41:47;7.30;;;3.15;;
80315;SDS011;71201;47.064;15.448;2024-03-22T19:44:13;11.02;;;3.80;;
80315;SDS011;71201;47.064;15.448;2024-03-22T19:46:38;6.13;;;3.70;;
80315;SDS011;71201;47.064;15.448;2024-03-22T19:49:03;6.70;;;3.67;;
80315;SDS011;71201;47.064;15.448;2024-03-22T19:51:30;8.60;;;3.42;;
80315;SDS011;71201;47.064;15.448;2024-03-22T19:53:55;5.87;;;3.20;;
80315;SDS011;71201;47.064;15.448;2024-03-22T19:56:20;8.27;;;3.53;;
80315;SDS011;71201;47.064;15.448;2024-03-22T19:58:46;5.35;;;2.95;;
80315;SDS011;71201;47.064;15.448;2024-03-22T20:01:12;5.10;;;3.28;;
80315;SDS011;71201;47.064;15.448;2024-03-22T20:03:38;5.25;;;2.75;;
80315;SDS011;71201;47.064;15.448;2024-03-22T20:06:03;9.23;;;3.92;;
80315;SDS011;71201;47.064;15.448;2024-03-22T20:08:28;6.18;;;2.95;;
80315;SDS011;71201;47.064;15.448;2024-03-22T20:10:54;6.67;;;3.40;;
80315;SDS011;71201;47.064;15.448;2024-03-22T20:13:22;6.70;;;2.90;;
80315;SDS011;71201;47.064;15.448;2024-03-22T20:15:47;5.03;;;2.55;;
80315;SDS011;71201;47.064;15.448;2024-03-22T20:18:13;6.32;;;3.10;;
80315;SDS011;71201;47.064;15.448;2024-03-22T20:20:38;5.90;;;3.43;;
80315;SDS011;71201;47.064;15.448;2024-03-22T20:23:03;5.97;;;3.43;;
80315;SDS011;71201;47.064;15.448;2024-03-22T20:25:30;7.00;;;3.33;;
80315;SDS011;71201;47.064;15.448;2024-03-22T20:27:55;8.85;;;3.50;;
80315;SDS011;71201;47.064;15.448;2024-03-22T20:30:24;6.28;;;3.50;;
80315;SDS011;71201;47.064;15.448;2024-03-22T20:32:50;8.00;;;3.42;;
80315;SDS011;71201;47.064;15.448;2024-03-22T20:35:15;11.60;;;3.93;;
80315;SDS011;71201;47.064;15.448;2024-03-22T20:37:40;6.97;;;3.65;;
